Time;durP1;ratioP1;P1;durP2;ratioP2;P2;SDS_P1;SDS_P2;PMS_P1;PMS_P2;Temp;Humidity;BMP_temperature;BMP_pressure;BME280_temperature;BME280_humidity;BME280_pressure;Samples;Min_cycle;Max_cycle;Signal;HPM_P1;HPM_P2
2022/03/30 00:01:20;;;;;;;39.28;14.52;;;;;;;9.21;76.99;100369.38;5079959;28;20174;-72
2022/03/30 00:03:47;;;;;;;35.17;14.25;;;;;;;9.15;77.39;100362.69;5068391;28;20079;-71
2022/03/30 00:06:14;;;;;;;36.88;15.55;;;;;;;9.12;77.58;100365.47;5077123;28;20055;-73
2022/03/30 00:08:42;;;;;;;38.10;14.82;;;;;;;9.11;77.54;100350.88;5088653;28;20058;-72
2022/03/30 00:11:10;;;;;;;34.85;15.23;;;;;;;9.09;77.48;100355.22;5078857;28;20075;-74
2022/03/30 00:13:37;;;;;;;36.00;14.32;;;;;;;9.07;77.45;100352.84;5083967;28;20139;-71
2022/03/30 00:16:06;;;;;;;39.83;14.77;;;;;;;9.01;78.15;100362.69;5078880;28;20581;-75
2022/03/30 00:18:33;;;;;;;34.40;12.73;;;;;;;9.00;78.62;100361.13;5080504;28;20040;-71
2022/03/30 00:21:00;;;;;;;34.17;13.32;;;;;;;8.94;78.87;100359.16;5082196;28;20075;-71
2022/03/30 00:23:26;;;;;;;38.33;15.50;;;;;;;8.87;79.03;100357.19;5077071;28;20143;-72
2022/03/30 00:25:53;;;;;;;37.67;14.93;;;;;;;8.89;79.37;100351.28;5075242;28;20148;-71
2022/03/30 00:28:19;;;;;;;37.22;15.55;;;;;;;8.84;79.97;100352.44;5080548;28;20149;-71
2022/03/30 00:30:46;;;;;;;35.30;14.93;;;;;;;8.85;80.09;100356.81;5080546;28;20508;-71
2022/03/30 00:33:12;;;;;;;33.50;14.40;;;;;;;8.80;80.90;100353.63;5069108;28;20139;-70
2022/03/30 00:35:39;;;;;;;38.63;13.98;;;;;;;8.80;80.45;100348.91;5074013;28;20056;-74
2022/03/30 00:38:06;;;;;;;42.88;17.75;;;;;;;8.71;80.96;100344.97;5066746;28;20056;-74
2022/03/30 00:40:32;;;;;;;41.97;16.17;;;;;;;8.75;80.65;100348.50;5079679;28;20135;-70
2022/03/30 00:43:00;;;;;;;35.70;14.32;;;;;;;8.77;81.03;100348.91;5075502;28;20139;-72
2022/03/30 00:45:27;;;;;;;33.08;13.88;;;;;;;8.75;81.18;100352.06;5074065;28;20143;-71
2022/03/30 00:47:54;;;;;;;40.03;15.38;;;;;;;8.76;81.36;100345.38;5075530;28;20090;-70
2022/03/30 00:50:22;;;;;;;43.22;15.98;;;;;;;8.69;81.51;100339.84;5070399;28;20571;-73
2022/03/30 00:52:50;;;;;;;44.08;15.20;;;;;;;8.72;81.08;100338.28;5067862;28;20588;-70
2022/03/30 00:55:18;;;;;;;41.00;15.45;;;;;;;8.66;81.40;100335.13;5068244;28;20048;-73
2022/03/30 00:57:46;;;;;;;39.70;13.27;;;;;;;8.63;81.74;100335.91;5081775;28;20152;-70
2022/03/30 01:00:15;;;;;;;36.92;14.20;;;;;;;8.61;82.33;100341.00;5087842;28;20083;-70
2022/03/30 01:02:44;;;;;;;40.58;14.68;;;;;;;8.56;82.77;100330.38;5085538;28;20066;-72
2022/03/30 01:05:11;;;;;;;33.63;14.32;;;;;;;8.59;82.35;100342.59;5086022;28;20060;-72
2022/03/30 01:07:38;;;;;;;40.70;15.20;;;;;;;8.54;82.49;100331.97;5079198;28;20142;-71
2022/03/30 01:10:06;;;;;;;36.28;14.30;;;;;;;8.53;82.52;100324.84;5079577;28;20134;-72
2022/03/30 01:12:36;;;;;;;39.47;16.08;;;;;;;8.51;82.49;100321.72;5078211;28;20151;-71
2022/03/30 01:15:04;;;;;;;38.42;16.20;;;;;;;8.47;82.72;100332.72;5069684;28;20044;-71
2022/03/30 01:17:30;;;;;;;31.15;13.18;;;;;;;8.48;82.83;100326.06;5067960;28;20051;-71
2022/03/30 01:19:57;;;;;;;40.53;15.63;;;;;;;8.43;83.19;100325.66;5068608;28;20348;-72
2022/03/30 01:22:23;;;;;;;41.53;16.08;;;;;;;8.41;83.46;100326.03;5075811;28;20048;-71
2022/03/30 01:24:50;;;;;;;38.83;14.93;;;;;;;8.39;83.53;100320.13;5075517;28;20109;-72
2022/03/30 01:27:17;;;;;;;39.75;14.70;;;;;;;8.39;83.29;100316.56;5072406;28;20049;-71
2022/03/30 01:32:29;;;;;;;43.30;13.35;;;;;;;8.35;83.86;100308.31;5071436;28;20051;-71
2022/03/30 01:35:00;;;;;;;44.80;14.50;;;;;;;8.32;84.43;100303.56;5077754;28;20083;-73
2022/03/30 01:37:29;;;;;;;41.70;13.98;;;;;;;8.25;84.39;100294.50;5073062;28;20076;-71
2022/03/30 01:39:57;;;;;;;35.63;14.43;;;;;;;8.20;84.63;100297.63;5052712;28;20060;-72
2022/03/30 01:42:25;;;;;;;38.47;14.60;;;;;;;8.15;84.98;100295.25;5068683;28;20048;-72
2022/03/30 01:44:52;;;;;;;40.85;15.13;;;;;;;8.08;85.43;100290.50;5072815;28;20129;-71
2022/03/30 01:47:19;;;;;;;35.60;15.10;;;;;;;8.06;85.23;100297.59;5076885;28;20051;-71
2022/03/30 01:49:46;;;;;;;40.30;15.00;;;;;;;8.01;85.67;100296.78;5079286;28;20560;-71
2022/03/30 01:52:16;;;;;;;42.20;14.90;;;;;;;7.98;85.77;100294.03;5066327;28;20055;-71
2022/03/30 01:54:44;;;;;;;34.17;13.13;;;;;;;7.94;85.64;100285.75;5067817;28;20056;-71
2022/03/30 01:57:13;;;;;;;41.20;15.32;;;;;;;7.94;86.04;100294.00;5066163;28;20052;-71
2022/03/30 01:59:44;;;;;;;36.38;13.75;;;;;;;7.87;86.48;100285.72;5070041;28;20182;-71
2022/03/30 02:02:11;;;;;;;38.05;14.52;;;;;;;7.82;86.53;100272.34;5074752;28;20062;-71
2022/03/30 02:04:39;;;;;;;39.50;13.63;;;;;;;7.83;86.59;100276.66;5069933;28;20052;-70
2022/03/30 02:07:10;;;;;;;31.23;13.32;;;;;;;7.75;86.97;100272.31;5071819;28;20674;-71
2022/03/30 02:09:38;;;;;;;42.63;14.70;;;;;;;7.73;87.49;100268.38;5072355;28;20526;-73
2022/03/30 02:12:07;;;;;;;35.90;14.57;;;;;;;7.72;87.75;100275.84;5079391;28;20044;-70
2022/03/30 02:14:34;;;;;;;32.35;12.82;;;;;;;7.70;87.84;100275.44;5082059;28;20500;-70
2022/03/30 02:17:01;;;;;;;32.80;13.73;;;;;;;7.71;87.79;100271.53;5080297;28;20483;-71
2022/03/30 02:19:27;;;;;;;35.03;13.73;;;;;;;7.67;87.95;100275.44;5079388;28;20072;-71
2022/03/30 02:21:54;;;;;;;38.58;14.25;;;;;;;7.63;88.34;100274.66;5081015;28;20518;-70
2022/03/30 02:24:20;;;;;;;35.47;14.35;;;;;;;7.58;88.05;100272.25;5084470;28;20558;-70
2022/03/30 02:26:47;;;;;;;38.13;13.93;;;;;;;7.51;88.86;100266.72;5079351;28;20140;-70
2022/03/30 02:29:14;;;;;;;40.85;15.00;;;;;;;7.48;87.84;100257.28;5085387;28;20048;-71
2022/03/30 02:31:44;;;;;;;34.08;13.43;;;;;;;7.45;89.10;100254.50;5081808;28;20508;-70
2022/03/30 02:34:11;;;;;;;36.65;13.25;;;;;;;7.43;88.97;100259.63;5072499;28;20136;-71
2022/03/30 02:36:39;;;;;;;32.20;13.65;;;;;;;7.35;89.00;100250.53;5075799;28;20127;-71
2022/03/30 02:39:05;;;;;;;37.58;14.13;;;;;;;7.24;89.74;100244.22;5082080;28;20504;-71
2022/03/30 02:41:32;;;;;;;36.72;13.60;;;;;;;7.21;90.01;100247.72;5069871;28;20045;-71
2022/03/30 02:43:58;;;;;;;42.08;16.55;;;;;;;7.16;90.22;100250.06;5070104;28;20066;-71
2022/03/30 02:46:25;;;;;;;33.13;12.35;;;;;;;7.12;90.54;100249.25;5074435;28;20040;-71
2022/03/30 02:48:51;;;;;;;33.92;12.68;;;;;;;7.06;90.87;100235.06;5077873;28;20049;-71
2022/03/30 02:51:18;;;;;;;38.45;14.80;;;;;;;7.04;91.19;100240.16;5076221;28;20051;-71
2022/03/30 02:53:44;;;;;;;39.47;14.32;;;;;;;7.00;91.78;100233.06;5069362;28;20092;-71
2022/03/30 02:56:11;;;;;;;42.05;15.70;;;;;;;6.94;91.64;100232.66;5070257;28;20059;-72
2022/03/30 02:58:37;;;;;;;44.17;15.35;;;;;;;6.91;91.80;100229.88;5070142;28;20079;-71
2022/03/30 03:01:04;;;;;;;43.00;14.57;;;;;;;6.83;91.95;100234.56;5075898;28;20072;-71
2022/03/30 03:03:30;;;;;;;38.40;13.50;;;;;;;6.76;92.86;100225.47;5080949;28;20686;-70
2022/03/30 03:05:57;;;;;;;42.85;15.55;;;;;;;6.73;93.62;100228.97;5070246;28;20048;-72
2022/03/30 03:08:24;;;;;;;41.72;15.85;;;;;;;6.68;93.49;100224.63;5077680;28;20056;-72
2022/03/30 03:10:51;;;;;;;40.00;15.13;;;;;;;6.64;93.69;100223.81;5078780;28;20580;-71
2022/03/30 03:13:17;;;;;;;38.75;13.60;;;;;;;6.61;94.47;100223.81;5076934;28;20131;-71
2022/03/30 03:15:46;;;;;;;41.38;15.40;;;;;;;6.57;94.16;100223.75;5078432;28;20421;-71
2022/03/30 03:18:18;;;;;;;36.00;15.07;;;;;;;6.53;94.74;100216.66;5075592;28;20503;-71
2022/03/30 03:20:46;;;;;;;45.10;16.42;;;;;;;6.47;95.10;100212.69;5079582;28;20052;-72
2022/03/30 03:23:14;;;;;;;41.28;15.60;;;;;;;6.46;94.87;100209.16;5068730;28;20576;-72
2022/03/30 03:25:41;;;;;;;41.33;15.77;;;;;;;6.47;95.05;100215.44;5069489;28;20504;-72
2022/03/30 03:28:09;;;;;;;38.03;15.10;;;;;;;6.43;94.94;100200.88;5081544;28;20043;-72
2022/03/30 03:30:37;;;;;;;39.28;15.63;;;;;;;6.41;95.11;100208.72;5079077;28;20075;-72
2022/03/30 03:33:04;;;;;;;39.60;14.88;;;;;;;6.34;95.80;100200.44;5070069;28;20052;-69
2022/03/30 03:35:32;;;;;;;43.70;15.98;;;;;;;6.32;96.28;100213.75;5069402;28;20052;-71
2022/03/30 03:38:00;;;;;;;40.30;15.90;;;;;;;6.30;95.86;100210.59;5071242;28;20132;-71
2022/03/30 03:40:27;;;;;;;37.53;14.65;;;;;;;6.27;95.60;100206.66;5072763;28;20471;-70
2022/03/30 03:42:54;;;;;;;37.35;17.05;;;;;;;6.24;96.05;100209.38;5069485;28;20493;-71
2022/03/30 03:45:20;;;;;;;42.60;17.13;;;;;;;6.23;96.08;100194.84;5081043;28;20058;-71
2022/03/30 03:47:48;;;;;;;40.05;16.95;;;;;;;6.25;96.68;100205.47;5089511;28;20048;-73
2022/03/30 03:50:15;;;;;;;43.35;18.92;;;;;;;6.25;97.17;100208.22;5071615;28;20114;-70
2022/03/30 03:52:42;;;;;;;38.45;19.08;;;;;;;6.24;96.65;100198.41;5084925;28;20077;-71
2022/03/30 03:55:10;;;;;;;53.75;18.85;;;;;;;6.19;96.39;100202.28;5070619;28;20649;-72
2022/03/30 03:57:41;;;;;;;44.13;20.08;;;;;;;6.19;96.36;100205.03;5071381;28;20116;-71
2022/03/30 04:00:11;;;;;;;39.92;18.15;;;;;;;6.10;96.63;100199.06;5070007;28;20052;-70
2022/03/30 04:02:39;;;;;;;47.90;19.10;;;;;;;6.14;96.31;100193.59;5068168;28;20163;-70
2022/03/30 04:05:08;;;;;;;43.42;19.70;;;;;;;6.12;96.72;100193.97;5069743;28;20114;-72
2022/03/30 04:07:38;;;;;;;39.35;18.98;;;;;;;6.09;96.14;100185.69;5076922;28;20047;-72
2022/03/30 04:10:06;;;;;;;41.88;19.33;;;;;;;6.06;96.63;100189.19;5073743;28;20063;-72
2022/03/30 04:12:33;;;;;;;47.28;20.63;;;;;;;6.02;97.21;100188.38;5081239;28;20054;-70
2022/03/30 04:15:00;;;;;;;41.72;17.98;;;;;;;5.96;96.91;100181.66;5073936;28;20083;-69
2022/03/30 04:17:26;;;;;;;42.65;18.27;;;;;;;5.96;96.66;100181.66;5074177;28;20047;-72
2022/03/30 04:19:53;;;;;;;46.97;19.27;;;;;;;5.92;97.02;100176.16;5077896;28;20136;-72
2022/03/30 04:22:19;;;;;;;45.40;17.25;;;;;;;5.93;96.67;100182.41;5067308;28;20056;-70
2022/03/30 04:24:46;;;;;;;39.97;17.75;;;;;;;5.94;96.95;100175.78;5067608;28;20048;-70
2022/03/30 04:27:13;;;;;;;38.72;16.63;;;;;;;5.87;96.57;100162.75;5070942;28;20087;-70
2022/03/30 04:29:40;;;;;;;39.65;17.10;;;;;;;5.84;96.23;100160.00;5084408;28;20123;-71
2022/03/30 04:32:08;;;;;;;53.60;19.15;;;;;;;5.73;96.58;100168.09;5083665;28;20400;-71
2022/03/30 04:34:34;;;;;;;45.83;19.77;;;;;;;5.71;97.58;100164.16;5067000;28;20053;-71
2022/03/30 04:37:01;;;;;;;38.25;18.13;;;;;;;5.64;96.91;100167.63;5068585;28;20048;-72
2022/03/30 04:39:28;;;;;;;44.75;18.75;;;;;;;5.63;97.64;100168.78;5068487;28;20052;-72
2022/03/30 04:41:54;;;;;;;42.08;18.20;;;;;;;5.61;98.44;100173.06;5067203;28;20148;-73
2022/03/30 04:44:21;;;;;;;45.67;20.25;;;;;;;5.63;99.15;100165.25;5067621;28;20054;-71
2022/03/30 04:46:48;;;;;;;46.22;18.85;;;;;;;5.61;99.12;100162.09;5066697;28;20827;-71
2022/03/30 04:49:14;;;;;;;40.25;18.15;;;;;;;5.60;98.55;100160.53;5073904;28;20108;-71
2022/03/30 04:51:41;;;;;;;51.05;19.20;;;;;;;5.57;98.08;100158.53;5075272;28;20131;-71
2022/03/30 04:54:08;;;;;;;45.63;18.65;;;;;;;5.52;98.09;100145.94;5078345;28;20135;-72
2022/03/30 04:56:34;;;;;;;39.42;18.42;;;;;;;5.50;98.56;100151.00;5066384;28;20080;-70
2022/03/30 04:59:01;;;;;;;45.60;18.67;;;;;;;5.46;98.71;100152.16;5068136;28;20060;-71
2022/03/30 05:01:27;;;;;;;45.35;18.42;;;;;;;5.41;99.38;100151.28;5080813;28;20080;-71
2022/03/30 05:03:54;;;;;;;46.70;19.33;;;;;;;5.41;99.33;100162.28;5077937;28;20122;-71
2022/03/30 05:06:21;;;;;;;44.95;20.65;;;;;;;5.37;98.73;100158.72;5071468;28;20130;-72
2022/03/30 05:08:47;;;;;;;40.20;18.30;;;;;;;5.32;99.73;100159.06;5081399;28;20567;-72
2022/03/30 05:11:14;;;;;;;43.35;19.73;;;;;;;5.31;99.71;100156.69;5076909;28;20052;-72
2022/03/30 05:13:40;;;;;;;43.53;17.52;;;;;;;5.29;99.79;100162.56;5074086;28;20058;-73
2022/03/30 05:16:07;;;;;;;48.05;20.60;;;;;;;5.26;99.87;100157.81;5077421;28;20139;-72
2022/03/30 05:18:33;;;;;;;49.40;19.50;;;;;;;5.27;100.00;100162.13;5081314;28;20121;-72
2022/03/30 05:21:00;;;;;;;43.00;19.02;;;;;;;5.27;100.00;100164.88;5067344;28;20058;-72
2022/03/30 05:23:26;;;;;;;43.80;20.17;;;;;;;5.29;100.00;100162.56;5074086;28;20158;-74
2022/03/30 05:25:53;;;;;;;41.97;19.40;;;;;;;5.29;100.00;100164.50;5069341;28;20143;-71
2022/03/30 05:28:20;;;;;;;48.67;20.92;;;;;;;5.28;100.00;100166.47;5080289;28;20052;-70
2022/03/30 05:30:46;;;;;;;43.10;17.58;;;;;;;5.28;100.00;100176.63;5084368;28;20128;-70
2022/03/30 05:33:14;;;;;;;43.42;17.52;;;;;;;5.25;100.00;100169.16;5075572;28;20044;-73
2022/03/30 05:35:40;;;;;;;44.75;18.35;;;;;;;5.26;100.00;100165.25;5072117;28;20131;-72
2022/03/30 05:38:07;;;;;;;46.13;19.45;;;;;;;5.20;100.00;100162.03;5075897;28;20083;-73
2022/03/30 05:40:34;;;;;;;43.95;18.90;;;;;;;5.20;100.00;100167.53;5067521;28;20055;-73
2022/03/30 05:43:00;;;;;;;40.95;17.85;;;;;;;5.20;100.00;100166.75;5069362;28;20052;-71
2022/03/30 05:45:27;;;;;;;44.88;19.15;;;;;;;5.24;100.00;100168.34;5069664;28;20082;-72
2022/03/30 05:47:53;;;;;;;37.88;18.27;;;;;;;5.29;100.00;100168.03;5070159;28;21523;-74
2022/03/30 05:50:23;;;;;;;42.38;17.75;;;;;;;5.29;100.00;100170.78;5069729;28;20136;-73
2022/03/30 05:52:49;;;;;;;43.50;18.63;;;;;;;5.28;100.00;100174.69;5081848;28;20403;-71
2022/03/30 05:55:16;;;;;;;44.10;18.67;;;;;;;5.28;100.00;100166.47;5068511;28;20167;-71
2022/03/30 05:57:42;;;;;;;51.17;19.90;;;;;;;5.30;100.00;100177.84;5067948;28;20771;-71
2022/03/30 06:00:10;;;;;;;53.95;20.40;;;;;;;5.29;100.00;100172.72;5068148;28;20055;-73
2022/03/30 06:02:37;;;;;;;47.20;17.40;;;;;;;5.28;100.00;100171.94;5072140;28;20076;-74
2022/03/30 06:05:05;;;;;;;44.33;19.20;;;;;;;5.32;100.00;100175.53;5079036;28;20460;-73
2022/03/30 06:07:31;;;;;;;46.45;18.08;;;;;;;5.34;100.00;100169.66;5080319;28;20054;-74
2022/03/30 06:09:59;;;;;;;37.92;14.85;;;;;;;5.31;100.00;100159.44;5080906;28;20052;-73
2022/03/30 06:12:25;;;;;;;43.90;17.25;;;;;;;5.38;100.00;100170.47;5078140;28;20156;-74
2022/03/30 06:14:52;;;;;;;43.22;18.23;;;;;;;5.43;100.00;100163.88;5076835;28;20087;-73
2022/03/30 06:17:20;;;;;;;41.08;17.23;;;;;;;5.43;100.00;100161.13;5081501;28;20079;-74
2022/03/30 06:19:50;;;;;;;49.22;18.70;;;;;;;5.43;100.00;100161.91;5083561;28;20812;-74
2022/03/30 06:22:16;;;;;;;37.47;16.85;;;;;;;5.47;100.00;100163.50;5080801;28;20124;-73
2022/03/30 06:24:43;;;;;;;42.22;16.67;;;;;;;5.49;100.00;100165.88;5083770;28;20112;-73
2022/03/30 06:27:10;;;;;;;48.35;17.73;;;;;;;5.51;100.00;100160.81;5079068;28;20122;-73
2022/03/30 06:29:38;;;;;;;44.17;18.27;;;;;;;5.54;100.00;100170.25;5088862;28;20051;-73
2022/03/30 06:32:06;;;;;;;37.97;17.85;;;;;;;5.55;100.00;100167.13;5085191;28;20044;-74
2022/03/30 06:34:33;;;;;;;42.78;17.35;;;;;;;5.58;100.00;100171.06;5069829;28;20060;-74
2022/03/30 06:37:00;;;;;;;45.92;17.08;;;;;;;5.64;100.00;100170.38;5077236;28;20135;-74
2022/03/30 06:39:26;;;;;;;42.70;15.13;;;;;;;5.70;100.00;100168.06;5076580;28;20536;-74
2022/03/30 06:41:53;;;;;;;37.55;15.02;;;;;;;5.75;100.00;100171.25;5071162;28;20148;-74
2022/03/30 06:44:20;;;;;;;45.33;20.10;;;;;;;5.82;100.00;100171.34;5085799;28;20043;-74
2022/03/30 06:46:46;;;;;;;41.83;16.15;;;;;;;5.91;100.00;100168.28;5090604;28;20101;-74
2022/03/30 06:49:14;;;;;;;41.03;15.68;;;;;;;6.01;100.00;100181.31;5080693;28;20072;-74
2022/03/30 06:51:40;;;;;;;35.67;16.25;;;;;;;6.09;100.00;100171.97;5080969;28;20139;-74
2022/03/30 06:54:07;;;;;;;38.88;14.88;;;;;;;6.17;100.00;100165.38;5075572;28;20508;-75
2022/03/30 06:56:33;;;;;;;42.25;16.55;;;;;;;6.27;100.00;100170.13;5073197;28;20099;-74
2022/03/30 06:59:00;;;;;;;35.15;15.02;;;;;;;6.35;100.00;100177.28;5090689;28;20125;-73
2022/03/30 07:01:32;;;;;;;38.35;15.45;;;;;;;6.40;99.90;100169.47;5074455;28;20056;-73
2022/03/30 07:03:59;;;;;;;41.55;16.98;;;;;;;6.49;99.16;100174.63;5078540;28;20048;-71
2022/03/30 07:06:26;;;;;;;37.63;15.93;;;;;;;6.59;99.02;100173.91;5070447;28;20583;-74
2022/03/30 07:11:37;;;;;;;39.60;16.25;;;;;;;6.78;98.19;100177.16;5077643;28;20132;-74
2022/03/30 07:14:03;;;;;;;33.85;14.25;;;;;;;6.85;97.70;100168.16;5094049;28;20479;-74
2022/03/30 07:16:30;;;;;;;33.28;13.75;;;;;;;6.91;97.30;100167.41;5081839;28;20052;-74
2022/03/30 07:18:57;;;;;;;37.22;15.65;;;;;;;6.98;96.79;100172.13;5070227;28;20048;-73
2022/03/30 07:21:24;;;;;;;42.17;16.02;;;;;;;7.04;96.24;100160.41;5069262;28;20122;-72
2022/03/30 07:23:50;;;;;;;31.35;14.57;;;;;;;7.11;95.83;100160.44;5070226;28;20108;-74
2022/03/30 07:26:17;;;;;;;35.13;14.48;;;;;;;7.20;95.63;100162.81;5070629;28;20131;-73
2022/03/30 07:28:49;;;;;;;24.90;12.02;;;;;;;7.30;95.29;100159.31;5083866;28;20040;-72
2022/03/30 07:31:15;;;;;;;39.22;14.98;;;;;;;7.36;94.69;100155.78;5080587;28;20585;-72
2022/03/30 07:33:42;;;;;;;36.08;12.00;;;;;;;7.50;94.17;100160.56;5073164;28;20139;-72
2022/03/30 07:36:09;;;;;;;34.75;13.68;;;;;;;7.60;93.52;100162.53;5072445;28;20052;-75
2022/03/30 07:38:35;;;;;;;31.98;13.85;;;;;;;7.70;93.45;100156.28;5073468;28;20218;-73
2022/03/30 07:41:02;;;;;;;32.28;14.00;;;;;;;7.74;92.64;100151.53;5079935;28;20063;-72
2022/03/30 07:43:29;;;;;;;37.63;13.63;;;;;;;7.78;91.50;100155.09;5073823;28;20067;-74
2022/03/30 07:45:56;;;;;;;34.60;13.50;;;;;;;7.87;91.38;100158.25;5069877;28;20760;-73
2022/03/30 07:48:23;;;;;;;30.60;12.63;;;;;;;7.98;91.51;100156.28;5078880;28;20055;-73
2022/03/30 07:50:50;;;;;;;35.72;14.18;;;;;;;8.06;90.45;100146.84;5073824;28;20062;-72
2022/03/30 07:53:16;;;;;;;34.67;14.13;;;;;;;8.17;90.58;100155.91;5072866;28;20053;-68
2022/03/30 07:55:43;;;;;;;37.88;13.25;;;;;;;8.29;90.41;100146.44;5073336;28;20625;-72
2022/03/30 07:58:10;;;;;;;36.03;12.88;;;;;;;8.41;89.57;100148.81;5073703;28;20076;-75
2022/03/30 08:00:36;;;;;;;25.95;10.95;;;;;;;8.51;88.38;100140.53;5081673;28;20504;-73
2022/03/30 08:03:03;;;;;;;28.75;12.68;;;;;;;8.64;86.91;100146.41;5068342;28;20398;-72
2022/03/30 08:05:31;;;;;;;35.50;12.40;;;;;;;8.76;86.44;100134.94;5068589;28;20168;-72
2022/03/30 08:07:57;;;;;;;31.70;12.27;;;;;;;8.91;85.71;100148.28;5075408;28;20045;-72
2022/03/30 08:10:26;;;;;;;33.45;12.45;;;;;;;8.95;84.00;100143.56;5071660;28;20040;-72
2022/03/30 08:12:53;;;;;;;30.08;11.18;;;;;;;9.07;83.09;100142.31;5075072;28;20086;-72
2022/03/30 08:15:21;;;;;;;31.35;12.27;;;;;;;9.15;82.79;100143.88;5082928;28;20098;-73
2022/03/30 08:17:50;;;;;;;34.67;12.18;;;;;;;9.26;81.87;100155.63;5071006;28;20105;-73
2022/03/30 08:22:25;;;;;;;17.65;6.50;;;;;;;9.31;79.30;100156.00;5068948;28;20063;-73
2022/03/30 08:23:04;;;;;;;29.45;9.13;;;;;;;9.38;78.57;100155.19;5068281;28;20083;-75
2022/03/30 08:25:32;;;;;;;29.60;12.35;;;;;;;9.40;78.62;100155.56;5069967;28;20079;-72
2022/03/30 08:27:58;;;;;;;28.92;11.18;;;;;;;9.42;78.55;100153.97;5079757;28;20048;-72
2022/03/30 08:30:25;;;;;;;30.55;11.18;;;;;;;9.51;78.30;100148.78;5085677;28;20086;-73
2022/03/30 08:32:52;;;;;;;29.73;11.00;;;;;;;9.58;77.58;100153.47;5080324;28;20520;-72
2022/03/30 08:35:19;;;;;;;34.33;12.75;;;;;;;9.69;78.18;100143.94;5069168;28;20428;-74
2022/03/30 08:37:45;;;;;;;31.30;10.38;;;;;;;9.77;77.63;100145.47;5068599;28;20496;-74
2022/03/30 08:40:12;;;;;;;32.78;10.25;;;;;;;9.88;76.75;100146.19;5070384;28;20073;-72
2022/03/30 08:42:40;;;;;;;28.20;11.13;;;;;;;9.94;74.51;100141.81;5075104;28;20462;-73
2022/03/30 08:45:10;;;;;;;34.35;10.75;;;;;;;10.01;72.98;100144.50;5067158;28;21367;-72
2022/03/30 08:47:37;;;;;;;27.55;8.85;;;;;;;10.12;72.11;100142.47;5073479;28;20036;-72
2022/03/30 08:50:05;;;;;;;26.25;9.38;;;;;;;10.22;70.90;100144.34;5083794;28;20048;-75
2022/03/30 08:52:32;;;;;;;24.80;9.23;;;;;;;10.24;69.44;100141.97;5087209;28;20451;-73
2022/03/30 08:54:59;;;;;;;34.30;11.73;;;;;;;10.32;70.24;100137.94;5081423;28;20076;-71
2022/03/30 08:57:27;;;;;;;27.38;10.30;;;;;;;10.48;73.38;100137.41;5078715;28;20739;-73
2022/03/30 09:00:34;;;;;;;30.88;11.07;;;;;;;10.50;70.57;100132.25;5077296;28;20101;-71
2022/03/30 09:03:01;;;;;;;25.83;9.93;;;;;;;10.63;70.66;100140.81;5072711;28;20153;-72
2022/03/30 09:05:35;;;;;;;29.13;10.32;;;;;;;10.71;70.04;100134.00;5066806;28;20056;-74
2022/03/30 09:08:25;;;;;;;27.48;10.75;;;;;;;10.83;69.92;100128.72;5074984;28;20052;-71
2022/03/30 09:10:54;;;;;;;27.20;10.50;;;;;;;10.95;69.24;100132.94;5081836;28;20542;-71
2022/03/30 09:13:21;;;;;;;21.42;6.50;;;;;;;11.05;68.39;100127.28;5069251;28;20067;-74
2022/03/30 09:15:50;;;;;;;28.20;9.98;;;;;;;11.10;67.59;100126.81;5079064;28;20131;-72
2022/03/30 09:18:18;;;;;;;22.30;8.57;;;;;;;11.14;66.57;100130.31;5074802;28;20048;-73
2022/03/30 09:20:52;;;;;;;27.58;10.90;;;;;;;11.22;66.56;100125.47;5070471;28;20512;-71
2022/03/30 09:23:25;;;;;;;27.35;9.65;;;;;;;11.32;65.65;100127.31;5065846;28;20056;-72
2022/03/30 09:25:53;;;;;;;29.77;10.27;;;;;;;11.50;66.73;100120.31;5067888;28;20106;-72
2022/03/30 09:28:21;;;;;;;23.95;8.32;;;;;;;11.60;65.41;100119.38;5079656;28;20873;-73
2022/03/30 09:30:50;;;;;;;22.13;10.98;;;;;;;11.76;65.28;100116.00;5082500;28;20051;-70
2022/03/30 09:33:23;;;;;;;23.45;9.30;;;;;;;11.78;63.28;100124.72;5073308;28;20471;-70
2022/03/30 09:35:50;;;;;;;23.60;8.98;;;;;;;11.77;61.94;100123.13;5077350;28;20052;-72
2022/03/30 09:38:19;;;;;;;22.65;8.45;;;;;;;11.83;62.12;100127.00;5078614;28;20151;-71
2022/03/30 09:41:03;;;;;;;23.85;8.82;;;;;;;11.89;62.11;100120.56;5067850;28;20041;-71
2022/03/30 09:43:34;;;;;;;21.67;6.55;;;;;;;12.00;60.94;100115.63;5066416;28;20407;-72
2022/03/30 09:46:12;;;;;;;24.30;9.98;;;;;;;12.16;61.97;100107.44;5067090;28;20056;-71
2022/03/30 09:48:53;;;;;;;25.30;9.13;;;;;;;12.25;60.70;100112.44;5065414;28;20044;-73
2022/03/30 09:51:22;;;;;;;22.92;9.57;;;;;;;12.32;61.00;100104.75;5079783;28;20531;-72
2022/03/30 09:53:49;;;;;;;21.73;8.02;;;;;;;12.50;61.77;100098.91;5074991;28;20041;-72
2022/03/30 09:56:19;;;;;;;19.23;7.65;;;;;;;12.56;58.39;100097.22;5066682;28;20057;-73
2022/03/30 09:58:47;;;;;;;21.70;9.50;;;;;;;12.63;59.16;100091.53;5067929;28;20192;-71
2022/03/30 10:01:29;;;;;;;20.85;8.20;;;;;;;12.70;57.81;100094.16;5066620;28;20052;-69
2022/03/30 10:04:02;;;;;;;24.25;8.05;;;;;;;12.87;58.36;100095.78;5080524;28;20472;-70
2022/03/30 10:06:32;;;;;;;20.95;8.98;;;;;;;13.09;58.46;100096.19;5064814;28;20048;-70
2022/03/30 10:09:04;;;;;;;28.63;8.70;;;;;;;13.19;57.12;100087.59;5059156;28;20052;-72
2022/03/30 10:11:31;;;;;;;19.58;7.93;;;;;;;13.29;56.13;100089.38;5057668;28;20056;-72
2022/03/30 10:14:03;;;;;;;28.80;9.13;;;;;;;13.44;56.83;100090.63;5058407;28;20044;-72
2022/03/30 10:16:42;;;;;;;23.13;9.00;;;;;;;13.70;55.87;100092.38;5058088;28;20051;-73
2022/03/30 10:19:09;;;;;;;26.77;9.75;;;;;;;13.78;54.92;100087.44;5057398;28;20052;-73
2022/03/30 10:22:06;;;;;;;20.58;8.45;;;;;;;13.87;53.21;100077.28;5056059;28;21350;-73
2022/03/30 10:24:52;;;;;;;21.75;8.05;;;;;;;13.99;52.30;100082.16;5057903;28;20222;-70
2022/03/30 10:27:37;;;;;;;22.52;8.13;;;;;;;14.09;52.26;100074.75;5068580;28;20079;-72
2022/03/30 10:30:07;;;;;;;23.30;8.38;;;;;;;14.12;51.75;100073.88;5059851;28;20043;-73
2022/03/30 10:32:35;;;;;;;18.27;8.05;;;;;;;14.14;50.35;100075.00;5059043;28;20412;-70
2022/03/30 10:35:05;;;;;;;21.67;8.30;;;;;;;14.17;50.37;100067.78;5059868;28;20061;-72
2022/03/30 10:37:40;;;;;;;18.83;8.02;;;;;;;14.14;50.21;100060.31;5061262;28;20044;-75
2022/03/30 10:40:14;;;;;;;20.87;9.03;;;;;;;14.23;50.98;100058.50;5059264;28;20059;-73
2022/03/30 10:42:47;;;;;;;21.30;8.43;;;;;;;14.29;50.15;100058.75;5058873;28;20739;-72
2022/03/30 10:45:29;;;;;;;23.77;10.00;;;;;;;14.50;50.76;100047.84;5055389;28;20053;-75
2022/03/30 10:48:19;;;;;;;19.05;9.05;;;;;;;14.69;50.46;100044.13;5057205;28;20051;-73
2022/03/30 10:50:55;;;;;;;26.88;11.23;;;;;;;14.89;49.70;100047.50;5060065;28;20080;-70
2022/03/30 10:53:31;;;;;;;25.33;9.15;;;;;;;14.95;48.83;100039.41;5058439;28;20053;-72
2022/03/30 10:56:07;;;;;;;20.27;8.00;;;;;;;15.14;47.71;100050.34;5059086;28;20117;-71
2022/03/30 10:59:04;;;;;;;20.20;7.93;;;;;;;15.34;48.83;100041.75;5059374;28;20073;-73
2022/03/30 11:01:35;;;;;;;23.13;9.07;;;;;;;15.62;46.50;100040.88;5060738;28;20503;-71
2022/03/30 11:04:02;;;;;;;22.27;9.00;;;;;;;15.82;47.54;100035.84;5062582;28;20097;-72
2022/03/30 11:06:34;;;;;;;26.15;10.18;;;;;;;15.91;46.80;100035.16;5063529;28;20046;-69
2022/03/30 11:09:19;;;;;;;18.23;7.55;;;;;;;15.99;47.35;100034.47;5061099;28;20097;-71
2022/03/30 11:12:02;;;;;;;20.07;8.13;;;;;;;16.21;45.38;100028.94;5059442;28;20135;-71
2022/03/30 11:14:29;;;;;;;22.05;8.52;;;;;;;16.31;45.80;100028.59;5061066;28;20303;-72
2022/03/30 11:17:01;;;;;;;24.15;8.88;;;;;;;16.26;45.78;100023.56;5059427;28;20044;-74
2022/03/30 11:19:48;;;;;;;23.25;9.85;;;;;;;16.47;44.81;100017.25;5075684;28;20056;-71
2022/03/30 11:22:16;;;;;;;21.38;8.38;;;;;;;16.57;44.91;100016.09;5076777;28;20059;-72
2022/03/30 11:25:04;;;;;;;21.85;9.70;;;;;;;16.52;44.27;100011.09;5067883;28;20103;-73
2022/03/30 11:27:34;;;;;;;25.15;10.15;;;;;;;16.63;44.75;100008.69;5075129;28;20615;-71
2022/03/30 11:30:12;;;;;;;19.23;7.47;;;;;;;16.57;44.27;99998.56;5080352;28;20617;-71